sensor_id;sensor_type;location;lat;lon;timestamp;pressure;altitude;pressure_sealevel;temperature;humidity
36726;BME280;44936;52.086;5.150;2022-12-29T01:31:51;100196.97;;;9.79;100.00
36726;BME280;44936;52.086;5.150;2022-12-29T01:34:17;100135.97;;;9.59;100.00
36726;BME280;44936;52.086;5.150;2022-12-29T01:36:43;100171.69;;;9.72;100.00
36726;BME280;44936;52.086;5.150;2022-12-29T01:39:08;100214.38;;;9.92;100.00
36726;BME280;44936;52.086;5.150;2022-12-29T01:41:33;100178.69;;;9.73;100.00
36726;BME280;44936;52.086;5.150;2022-12-29T01:44:00;100174.22;;;9.87;100.00
36726;BME280;44936;52.086;5.150;2022-12-29T01:49:27;100178.69;;;9.67;100.00
36726;BME280;44936;52.086;5.150;2022-12-29T01:55:17;100155.16;;;9.58;100.00
36726;BME280;44936;52.086;5.150;2022-12-29T01:57:54;100192.69;;;9.58;100.00
36726;BME280;44936;52.086;5.150;2022-12-29T02:09:07;100248.56;;;9.54;100.00
36726;BME280;44936;52.086;5.150;2022-12-29T02:11:36;100266.84;;;9.60;100.00
36726;BME280;44936;52.086;5.150;2022-12-29T02:14:13;100258.13;;;9.60;100.00
36726;BME280;44936;52.086;5.150;2022-12-29T02:22:35;100340.97;;;10.01;100.00
36726;BME280;44936;52.086;5.150;2022-12-29T02:39:40;100323.53;;;9.87;100.00
36726;BME280;44936;52.086;5.150;2022-12-29T02:42:36;100352.34;;;9.93;100.00
36726;BME280;44936;52.086;5.150;2022-12-29T02:45:10;100340.97;;;9.96;100.00
36726;BME280;44936;52.086;5.150;2022-12-29T02:47:51;100315.72;;;9.68;100.00
36726;BME280;44936;52.086;5.150;2022-12-29T02:50:42;100286.94;;;9.52;100.00
36726;BME280;44936;52.086;5.150;2022-12-29T02:53:17;100334.03;;;9.78;100.00
36726;BME280;44936;52.086;5.150;2022-12-29T02:56:05;100349.78;;;9.72;100.00
36726;BME280;44936;52.086;5.150;2022-12-29T02:58:31;100360.19;;;9.87;100.00
36726;BME280;44936;52.086;5.150;2022-12-29T03:12:32;100327.06;;;9.74;100.00
36726;BME280;44936;52.086;5.150;2022-12-29T03:15:23;100297.44;;;9.55;100.00
36726;BME280;44936;52.086;5.150;2022-12-29T03:18:22;100330.59;;;9.64;100.00
36726;BME280;44936;52.086;5.150;2022-12-29T03:20:55;100298.31;;;9.33;100.00
36726;BME280;44936;52.086;5.150;2022-12-29T03:23:24;100310.50;;;9.52;100.00
36726;BME280;44936;52.086;5.150;2022-12-29T03:26:05;100277.38;;;9.27;100.00
36726;BME280;44936;52.086;5.150;2022-12-29T03:28:39;100313.13;;;9.57;100.00
36726;BME280;44936;52.086;5.150;2022-12-29T03:31:10;100323.56;;;9.61;100.00
36726;BME280;44936;52.086;5.150;2022-12-29T03:33:47;100297.44;;;9.34;100.00
36726;BME280;44936;52.086;5.150;2022-12-29T03:36:21;100323.59;;;9.57;100.00
36726;BME280;44936;52.086;5.150;2022-12-29T03:38:57;100247.72;;;9.32;100.00
36726;BME280;44936;52.086;5.150;2022-12-29T03:41:30;100265.19;;;9.29;100.00
36726;BME280;44936;52.086;5.150;2022-12-29T03:43:57;100243.34;;;9.25;100.00
36726;BME280;44936;52.086;5.150;2022-12-29T03:46:22;100276.50;;;9.35;100.00
36726;BME280;44936;52.086;5.150;2022-12-29T03:48:48;100248.59;;;9.07;100.00
36726;BME280;44936;52.086;5.150;2022-12-29T03:51:13;100251.25;;;9.10;100.00
36726;BME280;44936;52.086;5.150;2022-12-29T03:53:41;100231.19;;;9.04;100.00
36726;BME280;44936;52.086;5.150;2022-12-29T03:56:09;100253.84;;;9.07;100.00
36726;BME280;44936;52.086;5.150;2022-12-29T03:58:40;100270.41;;;9.20;100.00
36726;BME280;44936;52.086;5.150;2022-12-29T04:01:05;100224.22;;;8.93;100.00
36726;BME280;44936;52.086;5.150;2022-12-29T04:03:33;100211.13;;;8.82;100.00
36726;BME280;44936;52.086;5.150;2022-12-29T04:05:59;100251.22;;;9.01;100.00
36726;BME280;44936;52.086;5.150;2022-12-29T04:08:29;100223.31;;;8.89;100.00
36726;BME280;44936;52.086;5.150;2022-12-29T04:10:58;100260.81;;;9.08;100.00
36726;BME280;44936;52.086;5.150;2022-12-29T04:13:28;100217.22;;;8.89;100.00
36726;BME280;44936;52.086;5.150;2022-12-29T04:15:56;100290.47;;;9.19;100.00
36726;BME280;44936;52.086;5.150;2022-12-29T04:18:24;100305.28;;;9.31;100.00
36726;BME280;44936;52.086;5.150;2022-12-29T04:20:49;100272.16;;;9.05;100.00
36726;BME280;44936;52.086;5.150;2022-12-29T04:23:36;100292.22;;;9.14;100.00
36726;BME280;44936;52.086;5.150;2022-12-29T04:26:03;100306.16;;;9.25;100.00
36726;BME280;44936;52.086;5.150;2022-12-29T04:28:32;100341.06;;;9.46;100.00
36726;BME280;44936;52.086;5.150;2022-12-29T04:31:01;100303.56;;;9.31;100.00
36726;BME280;44936;52.086;5.150;2022-12-29T04:33:30;100309.63;;;9.27;100.00
36726;BME280;44936;52.086;5.150;2022-12-29T04:35:59;100280.88;;;9.17;100.00
36726;BME280;44936;52.086;5.150;2022-12-29T04:38:26;100275.66;;;9.11;100.00
36726;BME280;44936;52.086;5.150;2022-12-29T04:40:51;100292.22;;;9.22;100.00
36726;BME280;44936;52.086;5.150;2022-12-29T04:43:19;100313.16;;;9.23;100.00
36726;BME280;44936;52.086;5.150;2022-12-29T04:45:45;100300.06;;;8.97;100.00
36726;BME280;44936;52.086;5.150;2022-12-29T04:48:26;100258.22;;;8.93;100.00
36726;BME280;44936;52.086;5.150;2022-12-29T04:50:55;100339.31;;;9.23;100.00
36726;BME280;44936;52.086;5.150;2022-12-29T04:53:23;100271.25;;;8.80;100.00
36726;BME280;44936;52.086;5.150;2022-12-29T04:55:50;100321.00;;;9.05;100.00
36726;BME280;44936;52.086;5.150;2022-12-29T04:58:19;100330.56;;;8.98;100.00
36726;BME280;44936;52.086;5.150;2022-12-29T05:00:44;100319.22;;;8.86;100.00
36726;BME280;44936;52.086;5.150;2022-12-29T05:03:24;100291.31;;;8.71;100.00
36726;BME280;44936;52.086;5.150;2022-12-29T05:05:57;100331.44;;;9.00;100.00
36726;BME280;44936;52.086;5.150;2022-12-29T05:08:23;100320.97;;;8.94;100.00
36726;BME280;44936;52.086;5.150;2022-12-29T05:10:51;100314.00;;;8.95;100.00
36726;BME280;44936;52.086;5.150;2022-12-29T05:13:33;100364.59;;;9.15;100.00
36726;BME280;44936;52.086;5.150;2022-12-29T05:15:58;100323.59;;;8.87;100.00
36726;BME280;44936;52.086;5.150;2022-12-29T05:18:37;100364.59;;;9.17;100.00
36726;BME280;44936;52.086;5.150;2022-12-29T05:21:13;100372.44;;;9.17;100.00
36726;BME280;44936;52.086;5.150;2022-12-29T05:23:44;100315.75;;;8.97;100.00
36726;BME280;44936;52.086;5.150;2022-12-29T05:26:09;100313.13;;;9.00;100.00
36726;BME280;44936;52.086;5.150;2022-12-29T05:28:35;100329.72;;;9.10;100.00
36726;BME280;44936;52.086;5.150;2022-12-29T05:31:00;100319.25;;;9.12;100.00
36726;BME280;44936;52.086;5.150;2022-12-29T05:33:26;100268.66;;;8.79;100.00
36726;BME280;44936;52.086;5.150;2022-12-29T05:35:51;100309.66;;;8.94;100.00
36726;BME280;44936;52.086;5.150;2022-12-29T05:38:18;100303.56;;;8.93;100.00
36726;BME280;44936;52.086;5.150;2022-12-29T05:40:49;100284.34;;;8.77;100.00
36726;BME280;44936;52.086;5.150;2022-12-29T05:43:17;100341.03;;;9.04;100.00
36726;BME280;44936;52.086;5.150;2022-12-29T05:45:48;100327.97;;;8.92;100.00
36726;BME280;44936;52.086;5.150;2022-12-29T05:48:14;100326.19;;;8.87;100.00
36726;BME280;44936;52.086;5.150;2022-12-29T05:50:47;100311.38;;;8.76;100.00
36726;BME280;44936;52.086;5.150;2022-12-29T05:53:18;100373.31;;;9.11;100.00
36726;BME280;44936;52.086;5.150;2022-12-29T05:55:47;100335.78;;;8.88;100.00
36726;BME280;44936;52.086;5.150;2022-12-29T05:58:14;100381.19;;;9.11;100.00
36726;BME280;44936;52.086;5.150;2022-12-29T06:00:49;100371.53;;;8.92;100.00
36726;BME280;44936;52.086;5.150;2022-12-29T06:03:26;100347.09;;;8.82;100.00
36726;BME280;44936;52.086;5.150;2022-12-29T06:05:52;100346.25;;;8.85;100.00
36726;BME280;44936;52.086;5.150;2022-12-29T06:08:17;100320.88;;;8.55;100.00
36726;BME280;44936;52.086;5.150;2022-12-29T06:10:44;100408.19;;;9.02;100.00
36726;BME280;44936;52.086;5.150;2022-12-29T06:13:15;100326.13;;;8.59;100.00
36726;BME280;44936;52.086;5.150;2022-12-29T06:15:40;100334.81;;;8.49;100.00
36726;BME280;44936;52.086;5.150;2022-12-29T06:18:09;100392.44;;;8.87;100.00
36726;BME280;44936;52.086;5.150;2022-12-29T06:20:42;100403.78;;;8.91;100.00
36726;BME280;44936;52.086;5.150;2022-12-29T06:23:11;100373.19;;;8.58;100.00
36726;BME280;44936;52.086;5.150;2022-12-29T06:25:42;100408.97;;;8.74;100.00
36726;BME280;44936;52.086;5.150;2022-12-29T06:28:30;100352.22;;;8.41;100.00
36726;BME280;44936;52.086;5.150;2022-12-29T06:30:59;100370.53;;;8.50;100.00
36726;BME280;44936;52.086;5.150;2022-12-29T06:33:29;100340.81;;;8.33;100.00
36726;BME280;44936;52.086;5.150;2022-12-29T06:36:04;100373.16;;;8.53;100.00
36726;BME280;44936;52.086;5.150;2022-12-29T06:38:33;100380.97;;;8.47;100.00
36726;BME280;44936;52.086;5.150;2022-12-29T06:41:01;100373.13;;;8.42;100.00
36726;BME280;44936;52.086;5.150;2022-12-29T06:43:27;100429.03;;;8.75;100.00
36726;BME280;44936;52.086;5.150;2022-12-29T06:45:52;100348.69;;;8.37;100.00
36726;BME280;44936;52.086;5.150;2022-12-29T06:48:19;100367.97;;;8.59;100.00
36726;BME280;44936;52.086;5.150;2022-12-29T06:50:44;100388.88;;;8.65;100.00
36726;BME280;44936;52.086;5.150;2022-12-29T06:53:13;100374.03;;;8.49;100.00
36726;BME280;44936;52.086;5.150;2022-12-29T06:55:41;100391.47;;;8.56;100.00
36726;BME280;44936;52.086;5.150;2022-12-29T06:58:08;100382.72;;;8.48;100.00
36726;BME280;44936;52.086;5.150;2022-12-29T07:00:38;100398.38;;;8.45;100.00
36726;BME280;44936;52.086;5.150;2022-12-29T07:03:06;100366.91;;;8.25;100.00
36726;BME280;44936;52.086;5.150;2022-12-29T07:05:31;100357.25;;;8.10;100.00
36726;BME280;44936;52.086;5.150;2022-12-29T07:07:58;100391.31;;;8.24;100.00
36726;BME280;44936;52.086;5.150;2022-12-29T07:10:31;100368.47;;;7.94;100.00
36726;BME280;44936;52.086;5.150;2022-12-29T07:12:56;100391.16;;;8.01;100.00
36726;BME280;44936;52.086;5.150;2022-12-29T07:15:25;100433.06;;;8.21;100.00
36726;BME280;44936;52.086;5.150;2022-12-29T07:17:53;100368.41;;;7.85;100.00
36726;BME280;44936;52.086;5.150;2022-12-29T07:20:19;100418.19;;;8.12;100.00
36726;BME280;44936;52.086;5.150;2022-12-29T07:22:44;100365.81;;;7.85;100.00
36726;BME280;44936;52.086;5.150;2022-12-29T07:25:10;100357.91;;;7.76;100.00
36726;BME280;44936;52.086;5.150;2022-12-29T07:27:36;100374.44;;;7.70;100.00
36726;BME280;44936;52.086;5.150;2022-12-29T07:30:02;100357.91;;;7.71;100.00
36726;BME280;44936;52.086;5.150;2022-12-29T07:32:33;100395.56;;;8.08;100.00
36726;BME280;44936;52.086;5.150;2022-12-29T07:35:07;100399.00;;;8.03;100.00
36726;BME280;44936;52.086;5.150;2022-12-29T07:37:50;100414.66;;;8.03;100.00
36726;BME280;44936;52.086;5.150;2022-12-29T07:40:22;100366.69;;;7.85;100.00
36726;BME280;44936;52.086;5.150;2022-12-29T07:42:48;100448.84;;;8.33;100.00
36726;BME280;44936;52.086;5.150;2022-12-29T07:45:17;100384.19;;;7.97;100.00
36726;BME280;44936;52.086;5.150;2022-12-29T07:47:48;100387.66;;;7.99;100.00
36726;BME280;44936;52.086;5.150;2022-12-29T07:50:16;100472.44;;;8.44;100.00
36726;BME280;44936;52.086;5.150;2022-12-29T07:52:44;100433.94;;;8.20;100.00
36726;BME280;44936;52.086;5.150;2022-12-29T07:55:13;100405.13;;;8.06;100.00
36726;BME280;44936;52.086;5.150;2022-12-29T07:57:39;100424.34;;;8.20;100.00
36726;BME280;44936;52.086;5.150;2022-12-29T08:00:08;100463.72;;;8.45;100.00
36726;BME280;44936;52.086;5.150;2022-12-29T08:02:37;100393.00;;;8.14;100.00
36726;BME280;44936;52.086;5.150;2022-12-29T08:05:06;100420.13;;;8.35;100.00
36726;BME280;44936;52.086;5.150;2022-12-29T08:07:33;100464.72;;;8.68;100.00
36726;BME280;44936;52.086;5.150;2022-12-29T08:10:14;100389.56;;;8.24;100.00
36726;BME280;44936;52.086;5.150;2022-12-29T08:12:45;100372.09;;;8.20;100.00
36726;BME280;44936;52.086;5.150;2022-12-29T08:15:11;100410.50;;;8.32;100.00
36726;BME280;44936;52.086;5.150;2022-12-29T08:17:40;100378.19;;;8.19;100.00
36726;BME280;44936;52.086;5.150;2022-12-29T08:20:09;100442.94;;;8.66;100.00
36726;BME280;44936;52.086;5.150;2022-12-29T08:22:56;100435.94;;;8.64;100.00
36726;BME280;44936;52.086;5.150;2022-12-29T08:25:22;100383.63;;;8.53;100.00
36726;BME280;44936;52.086;5.150;2022-12-29T08:27:48;100373.13;;;8.47;100.00
36726;BME280;44936;52.086;5.150;2022-12-29T08:30:14;100394.09;;;8.65;100.00
36726;BME280;44936;52.086;5.150;2022-12-29T08:32:40;100429.91;;;8.77;100.00
36726;BME280;44936;52.086;5.150;2022-12-29T08:35:06;100357.41;;;8.35;100.00
36726;BME280;44936;52.086;5.150;2022-12-29T08:37:33;100370.50;;;8.47;100.00
36726;BME280;44936;52.086;5.150;2022-12-29T08:40:01;100401.06;;;8.59;100.00
36726;BME280;44936;52.086;5.150;2022-12-29T08:42:29;100414.19;;;8.69;100.00
36726;BME280;44936;52.086;5.150;2022-12-29T08:44:57;100459.53;;;8.80;100.00
36726;BME280;44936;52.086;5.150;2022-12-29T08:47:22;100428.97;;;8.61;100.00
36726;BME280;44936;52.086;5.150;2022-12-29T08:49:48;100388.81;;;8.47;100.00
36726;BME280;44936;52.086;5.150;2022-12-29T08:52:14;100368.78;;;8.43;100.00
36726;BME280;44936;52.086;5.150;2022-12-29T08:54:42;100368.69;;;8.34;100.00
36726;BME280;44936;52.086;5.150;2022-12-29T08:57:10;100460.41;;;8.76;100.00
36726;BME280;44936;52.086;5.150;2022-12-29T08:59:37;100441.16;;;8.65;100.00
36726;BME280;44936;52.086;5.150;2022-12-29T09:02:02;100387.06;;;8.44;100.00
36726;BME280;44936;52.086;5.150;2022-12-29T09:04:28;100399.25;;;8.45;100.00
36726;BME280;44936;52.086;5.150;2022-12-29T09:06:54;100390.56;;;8.46;100.00
36726;BME280;44936;52.086;5.150;2022-12-29T09:09:20;100428.09;;;8.65;100.00
36726;BME280;44936;52.086;5.150;2022-12-29T09:11:48;100484.00;;;8.86;100.00
36726;BME280;44936;52.086;5.150;2022-12-29T09:14:18;100477.84;;;8.82;100.00
36726;BME280;44936;52.086;5.150;2022-12-29T09:16:47;100444.59;;;8.54;100.00
36726;BME280;44936;52.086;5.150;2022-12-29T09:19:32;100467.25;;;8.53;100.00
36726;BME280;44936;52.086;5.150;2022-12-29T09:22:00;100452.31;;;8.34;100.00
36726;BME280;44936;52.086;5.150;2022-12-29T09:24:26;100433.97;;;8.29;100.00
36726;BME280;44936;52.086;5.150;2022-12-29T09:26:54;100430.44;;;8.21;100.00
36726;BME280;44936;52.086;5.150;2022-12-29T09:29:22;100518.75;;;8.66;100.00
36726;BME280;44936;52.086;5.150;2022-12-29T09:31:48;100506.47;;;8.56;100.00
36726;BME280;44936;52.086;5.150;2022-12-29T09:34:14;100447.91;;;8.28;100.00
36726;BME280;44936;52.086;5.150;2022-12-29T09:36:42;100436.53;;;8.20;100.00
36726;BME280;44936;52.086;5.150;2022-12-29T09:39:15;100449.75;;;8.37;100.00
36726;BME280;44936;52.086;5.150;2022-12-29T09:41:43;100469.91;;;8.58;100.00
36726;BME280;44936;52.086;5.150;2022-12-29T09:46:55;100394.72;;;8.15;100.00
36726;BME280;44936;52.086;5.150;2022-12-29T09:49:45;100479.50;;;8.60;100.00
36726;BME280;44936;52.086;5.150;2022-12-29T09:52:26;100417.44;;;8.24;100.00
36726;BME280;44936;52.086;5.150;2022-12-29T09:55:04;100436.59;;;8.24;100.00
36726;BME280;44936;52.086;5.150;2022-12-29T09:57:59;100495.22;;;8.66;100.00
36726;BME280;44936;52.086;5.150;2022-12-29T10:00:48;100481.16;;;8.41;100.00
36726;BME280;44936;52.086;5.150;2022-12-29T10:03:18;100452.31;;;8.31;100.00
36726;BME280;44936;52.086;5.150;2022-12-29T10:17:01;100580.72;;;8.79;100.00
36726;BME280;44936;52.086;5.150;2022-12-29T10:25:37;100509.81;;;8.34;100.00
36726;BME280;44936;52.086;5.150;2022-12-29T10:28:10;100556.19;;;8.65;100.00
36726;BME280;44936;52.086;5.150;2022-12-29T10:30:40;100564.91;;;8.64;100.00
36726;BME280;44936;52.086;5.150;2022-12-29T10:33:08;100534.34;;;8.49;100.00
36726;BME280;44936;52.086;5.150;2022-12-29T10:35:38;100560.56;;;8.63;100.00
36726;BME280;44936;52.086;5.150;2022-12-29T10:38:29;100601.66;;;8.84;100.00
36726;BME280;44936;52.086;5.150;2022-12-29T10:41:00;100581.56;;;8.75;100.00
36726;BME280;44936;52.086;5.150;2022-12-29T10:43:30;100570.13;;;8.61;100.00
36726;BME280;44936;52.086;5.150;2022-12-29T10:45:58;100607.69;;;8.72;100.00
36726;BME280;44936;52.086;5.150;2022-12-29T10:48:30;100559.63;;;8.50;100.00
36726;BME280;44936;52.086;5.150;2022-12-29T10:50:58;100642.66;;;8.90;100.00
36726;BME280;44936;52.086;5.150;2022-12-29T10:53:35;100640.97;;;8.99;100.00
36726;BME280;44936;52.086;5.150;2022-12-29T10:56:09;100622.59;;;8.86;100.00
36726;BME280;44936;52.086;5.150;2022-12-29T10:59:01;100665.34;;;8.91;100.00
36726;BME280;44936;52.086;5.150;2022-12-29T11:01:37;100598.00;;;8.58;100.00
36726;BME280;44936;52.086;5.150;2022-12-29T11:04:16;100645.28;;;8.87;100.00
36726;BME280;44936;52.086;5.150;2022-12-29T11:06:45;100647.00;;;8.86;100.00
36726;BME280;44936;52.086;5.150;2022-12-29T11:09:24;100647.03;;;8.89;100.00
36726;BME280;44936;52.086;5.150;2022-12-29T11:11:53;100628.53;;;8.63;100.00
36726;BME280;44936;52.086;5.150;2022-12-29T11:14:28;100682.72;;;8.83;100.00
36726;BME280;44936;52.086;5.150;2022-12-29T11:17:03;100693.22;;;8.86;100.00
36726;BME280;44936;52.086;5.150;2022-12-29T11:19:36;100721.25;;;9.05;100.00
36726;BME280;44936;52.086;5.150;2022-12-29T11:22:23;100648.56;;;8.64;100.00
36726;BME280;44936;52.086;5.150;2022-12-29T11:24:55;100718.56;;;8.97;100.00
36726;BME280;44936;52.086;5.150;2022-12-29T11:27:32;100674.75;;;8.67;100.00
36726;BME280;44936;52.086;5.150;2022-12-29T11:29:58;100689.59;;;8.71;100.00
36726;BME280;44936;52.086;5.150;2022-12-29T11:32:26;100674.66;;;8.55;100.00
36726;BME280;44936;52.086;5.150;2022-12-29T11:35:35;100736.06;;;9.03;100.00
36726;BME280;44936;52.086;5.150;2022-12-29T11:38:02;100666.13;;;8.76;100.00
36726;BME280;44936;52.086;5.150;2022-12-29T11:40:29;100728.16;;;8.94;100.00
36726;BME280;44936;52.086;5.150;2022-12-29T11:43:11;100728.09;;;8.89;100.00
36726;BME280;44936;52.086;5.150;2022-12-29T11:45:48;100743.78;;;8.88;100.00
36726;BME280;44936;52.086;5.150;2022-12-29T11:48:17;100766.59;;;9.07;100.00
36726;BME280;44936;52.086;5.150;2022-12-29T11:50:52;100755.25;;;9.03;100.00
36726;BME280;44936;52.086;5.150;2022-12-29T11:53:22;100727.16;;;8.83;100.00
36726;BME280;44936;52.086;5.150;2022-12-29T11:58:31;100756.94;;;8.97;100.00
36726;BME280;44936;52.086;5.150;2022-12-29T12:01:02;100757.03;;;9.07;100.00
36726;BME280;44936;52.086;5.150;2022-12-29T12:03:32;100686.09;;;8.66;100.00
36726;BME280;44936;52.086;5.150;2022-12-29T12:06:03;100675.63;;;8.66;100.00
36726;BME280;44936;52.086;5.150;2022-12-29T12:08:53;100723.00;;;9.04;100.00
36726;BME280;44936;52.086;5.150;2022-12-29T12:11:28;100679.34;;;8.99;100.00
36726;BME280;44936;52.086;5.150;2022-12-29T12:17:18;100637.28;;;8.68;100.00
36726;BME280;44936;52.086;5.150;2022-12-29T12:19:57;100671.41;;;8.87;100.00
36726;BME280;44936;52.086;5.150;2022-12-29T12:22:38;100748.34;;;9.10;100.00
36726;BME280;44936;52.086;5.150;2022-12-29T12:27:56;100719.50;;;9.04;100.00
36726;BME280;44936;52.086;5.150;2022-12-29T12:30:28;100704.69;;;9.06;100.00
36726;BME280;44936;52.086;5.150;2022-12-29T12:33:26;100688.75;;;8.74;100.00
36726;BME280;44936;52.086;5.150;2022-12-29T12:47:47;100775.34;;;9.07;100.00
36726;BME280;44936;52.086;5.150;2022-12-29T12:50:22;100805.97;;;9.21;100.00
36726;BME280;44936;52.086;5.150;2022-12-29T12:53:17;100742.09;;;8.93;100.00
36726;BME280;44936;52.086;5.150;2022-12-29T12:58:52;100825.31;;;9.40;100.00
36726;BME280;44936;52.086;5.150;2022-12-29T13:07:37;100767.47;;;9.03;100.00
36726;BME280;44936;52.086;5.150;2022-12-29T13:19:16;100815.59;;;9.22;100.00
36726;BME280;44936;52.086;5.150;2022-12-29T13:35:00;100834.84;;;9.31;100.00
36726;BME280;44936;52.086;5.150;2022-12-29T13:37:34;100776.13;;;8.99;100.00
36726;BME280;44936;52.086;5.150;2022-12-29T13:40:10;100761.28;;;8.95;100.00
36726;BME280;44936;52.086;5.150;2022-12-29T13:42:38;100784.13;;;9.14;100.00
36726;BME280;44936;52.086;5.150;2022-12-29T13:45:13;100777.00;;;9.01;100.00
36726;BME280;44936;52.086;5.150;2022-12-29T13:50:27;100744.75;;;8.99;100.00
36726;BME280;44936;52.086;5.150;2022-12-29T13:56:07;100817.19;;;9.09;100.00
36726;BME280;44936;52.086;5.150;2022-12-29T13:58:44;100824.16;;;9.07;100.00
36726;BME280;44936;52.086;5.150;2022-12-29T14:01:41;100809.88;;;8.71;100.00
36726;BME280;44936;52.086;5.150;2022-12-29T14:04:22;100773.09;;;8.51;100.00
36726;BME280;44936;52.086;5.150;2022-12-29T14:07:17;100787.88;;;8.49;100.00
36726;BME280;44936;52.086;5.150;2022-12-29T14:09:51;100828.06;;;8.59;100.00
36726;BME280;44936;52.086;5.150;2022-12-29T14:12:43;100826.31;;;8.58;100.00
36726;BME280;44936;52.086;5.150;2022-12-29T14:17:39;100801.41;;;8.16;100.00
36726;BME280;44936;52.086;5.150;2022-12-29T14:20:16;100764.75;;;8.12;100.00
36726;BME280;44936;52.086;5.150;2022-12-29T14:23:00;100761.31;;;8.13;100.00
36726;BME280;44936;52.086;5.150;2022-12-29T14:25:52;100834.94;;;8.51;100.00
36726;BME280;44936;52.086;5.150;2022-12-29T14:28:29;100839.13;;;8.38;100.00
36726;BME280;44936;52.086;5.150;2022-12-29T14:31:00;100820.75;;;8.32;100.00
36726;BME280;44936;52.086;5.150;2022-12-29T14:33:28;100813.81;;;8.34;100.00
36726;BME280;44936;52.086;5.150;2022-12-29T14:36:20;100789.22;;;8.15;100.00
36726;BME280;44936;52.086;5.150;2022-12-29T14:38:47;100771.63;;;8.02;100.00
36726;BME280;44936;52.086;5.150;2022-12-29T14:41:33;100844.47;;;8.46;100.00
36726;BME280;44936;52.086;5.150;2022-12-29T14:46:49;100828.84;;;8.49;100.00
36726;BME280;44936;52.086;5.150;2022-12-29T14:49:26;100766.41;;;8.04;100.00
36726;BME280;44936;52.086;5.150;2022-12-29T14:51:54;100768.34;;;8.20;100.00
36726;BME280;44936;52.086;5.150;2022-12-29T14:56:59;100763.19;;;8.24;100.00
36726;BME280;44936;52.086;5.150;2022-12-29T14:59:30;100783.34;;;8.35;100.00
36726;BME280;44936;52.086;5.150;2022-12-29T15:02:00;100734.25;;;8.08;100.00
36726;BME280;44936;52.086;5.150;2022-12-29T15:04:33;100758.66;;;8.11;100.00
36726;BME280;44936;52.086;5.150;2022-12-29T15:07:07;100813.94;;;8.40;100.00
36726;BME280;44936;52.086;5.150;2022-12-29T15:09:40;100834.06;;;8.49;100.00
36726;BME280;44936;52.086;5.150;2022-12-29T15:12:19;100839.34;;;8.55;100.00
36726;BME280;44936;52.086;5.150;2022-12-29T15:14:56;100780.41;;;8.07;100.00
36726;BME280;44936;52.086;5.150;2022-12-29T15:17:25;100836.59;;;8.41;100.00
36726;BME280;44936;52.086;5.150;2022-12-29T15:19:58;100861.19;;;8.60;100.00
36726;BME280;44936;52.086;5.150;2022-12-29T15:22:24;100852.19;;;8.35;100.00
36726;BME280;44936;52.086;5.150;2022-12-29T15:24:52;100887.31;;;8.57;100.00
36726;BME280;44936;52.086;5.150;2022-12-29T15:27:25;100883.78;;;8.57;100.00
36726;BME280;44936;52.086;5.150;2022-12-29T15:30:03;100817.06;;;8.15;100.00
36726;BME280;44936;52.086;5.150;2022-12-29T15:32:40;100852.19;;;8.37;100.00
36726;BME280;44936;52.086;5.150;2022-12-29T15:37:50;100883.66;;;8.43;100.00
36726;BME280;44936;52.086;5.150;2022-12-29T15:40:34;100822.34;;;8.21;100.00
36726;BME280;44936;52.086;5.150;2022-12-29T15:43:13;100899.34;;;8.46;100.00
36726;BME280;44936;52.086;5.150;2022-12-29T15:45:43;100894.03;;;8.38;100.00
36726;BME280;44936;52.086;5.150;2022-12-29T15:48:20;100850.28;;;8.23;100.00
36726;BME280;44936;52.086;5.150;2022-12-29T15:50:47;100873.84;;;8.28;100.00
36726;BME280;44936;52.086;5.150;2022-12-29T15:53:32;100902.03;;;8.49;100.00
36726;BME280;44936;52.086;5.150;2022-12-29T15:56:06;100841.38;;;8.11;100.00
36726;BME280;44936;52.086;5.150;2022-12-29T15:58:40;100889.59;;;8.33;100.00
36726;BME280;44936;52.086;5.150;2022-12-29T16:01:19;100903.56;;;8.35;100.00
36726;BME280;44936;52.086;5.150;2022-12-29T16:03:52;100855.38;;;8.13;100.00
36726;BME280;44936;52.086;5.150;2022-12-29T16:06:35;100893.00;;;8.29;100.00
36726;BME280;44936;52.086;5.150;2022-12-29T16:09:04;100868.25;;;8.02;100.00
36726;BME280;44936;52.086;5.150;2022-12-29T16:11:31;100936.81;;;8.45;100.00
36726;BME280;44936;52.086;5.150;2022-12-29T16:14:01;100938.44;;;8.35;100.00
36726;BME280;44936;52.086;5.150;2022-12-29T16:16:39;100905.81;;;8.10;100.00
36726;BME280;44936;52.086;5.150;2022-12-29T16:19:24;100921.72;;;8.27;100.00
36726;BME280;44936;52.086;5.150;2022-12-29T16:21:55;100867.25;;;7.92;100.00
36726;BME280;44936;52.086;5.150;2022-12-29T16:24:30;100954.91;;;8.31;100.00
36726;BME280;44936;52.086;5.150;2022-12-29T16:29:44;100923.09;;;8.01;100.00
36726;BME280;44936;52.086;5.150;2022-12-29T16:32:44;100913.38;;;7.92;100.00
36726;BME280;44936;52.086;5.150;2022-12-29T16:35:20;100951.69;;;7.93;100.00
36726;BME280;44936;52.086;5.150;2022-12-29T16:37:46;100908.84;;;7.79;100.00
36726;BME280;44936;52.086;5.150;2022-12-29T16:42:46;100910.25;;;7.58;100.00
36726;BME280;44936;52.086;5.150;2022-12-29T16:48:10;100937.22;;;7.59;100.00
36726;BME280;44936;52.086;5.150;2022-12-29T16:50:37;100946.78;;;7.57;100.00
36726;BME280;44936;52.086;5.150;2022-12-29T16:53:04;100978.41;;;7.75;100.00
36726;BME280;44936;52.086;5.150;2022-12-29T16:55:30;100952.81;;;7.54;100.00
36726;BME280;44936;52.086;5.150;2022-12-29T16:57:58;100909.78;;;7.29;100.00
36726;BME280;44936;52.086;5.150;2022-12-29T17:00:27;100956.31;;;7.55;100.00
36726;BME280;44936;52.086;5.150;2022-12-29T17:02:59;100965.84;;;7.53;100.00
36726;BME280;44936;52.086;5.150;2022-12-29T17:05:25;100938.63;;;7.38;100.00
36726;BME280;44936;52.086;5.150;2022-12-29T17:07:51;100943.66;;;7.28;100.00
36726;BME280;44936;52.086;5.150;2022-12-29T17:10:18;100959.44;;;7.34;100.00